createdAt,value
2023-04-05T00:02:10.983Z,1.58
2023-04-05T00:04:42.474Z,1.60
2023-04-05T00:07:12.356Z,1.60
2023-04-05T00:09:39.870Z,1.30
2023-04-05T00:12:07.568Z,1.70
2023-04-05T00:14:36.390Z,2.25
2023-04-05T00:17:04.257Z,1.88
2023-04-05T00:19:33.860Z,1.38
2023-04-05T00:22:01.495Z,1.50
2023-04-05T00:24:29.458Z,1.50
2023-04-05T00:26:57.554Z,1.38
2023-04-05T00:29:25.199Z,1.48
2023-04-05T00:31:54.714Z,1.40
2023-04-05T00:34:22.322Z,1.30
2023-04-05T00:36:50.113Z,1.33
2023-04-05T00:39:17.840Z,1.48
2023-04-05T00:41:48.595Z,1.40
2023-04-05T00:44:16.362Z,1.52
2023-04-05T00:46:44.951Z,2.03
2023-04-05T00:49:13.848Z,1.30
2023-04-05T00:51:42.033Z,1.48
2023-04-05T00:54:11.604Z,1.38
2023-04-05T00:56:40.015Z,1.65
2023-04-05T00:59:07.678Z,1.23
2023-04-05T01:01:37.860Z,1.45
2023-04-05T01:04:07.309Z,1.30
2023-04-05T01:06:48.034Z,1.42
2023-04-05T01:09:23.409Z,1.50
2023-04-05T01:11:52.971Z,1.38
2023-04-05T01:14:20.453Z,1.40
2023-04-05T01:16:49.740Z,1.25
2023-04-05T01:19:17.322Z,1.23
2023-04-05T01:22:14.397Z,1.35
2023-04-05T01:27:21.077Z,1.10
2023-04-05T01:29:52.399Z,0.90
2023-04-05T01:32:27.887Z,1.23
2023-04-05T01:35:03.489Z,1.05
2023-04-05T01:37:33.691Z,1.00
2023-04-05T01:40:01.846Z,1.30
2023-04-05T01:42:29.367Z,0.98
2023-04-05T01:44:59.000Z,1.35
2023-04-05T01:47:26.521Z,1.17
2023-04-05T01:49:54.067Z,0.90
2023-04-05T01:52:22.549Z,1.00
2023-04-05T01:54:50.372Z,0.80
2023-04-05T01:57:18.367Z,0.75
2023-04-05T01:59:46.524Z,0.80
2023-04-05T02:02:15.614Z,1.08
2023-04-05T02:04:43.399Z,0.65
2023-04-05T02:07:10.955Z,1.00
2023-04-05T02:09:38.463Z,0.70
2023-04-05T02:12:06.247Z,1.02
2023-04-05T02:14:33.780Z,0.90
2023-04-05T02:17:03.179Z,0.77
2023-04-05T02:19:37.182Z,0.98
2023-04-05T02:22:04.762Z,0.80
2023-04-05T02:24:32.273Z,0.60
2023-04-05T02:26:59.788Z,0.70
2023-04-05T02:29:27.411Z,0.77
2023-04-05T02:31:55.019Z,0.60
2023-04-05T02:34:23.268Z,0.70
2023-04-05T02:36:52.895Z,1.00
2023-04-05T02:39:20.691Z,1.00
2023-04-05T02:41:48.225Z,0.90
2023-04-05T02:44:15.927Z,0.63
2023-04-05T02:46:43.412Z,0.95
2023-04-05T02:49:11.729Z,0.80
2023-04-05T02:51:39.278Z,0.68
2023-04-05T02:54:11.422Z,0.70
2023-04-05T02:56:39.752Z,0.70
2023-04-05T03:01:44.314Z,0.85
2023-04-05T03:04:20.120Z,1.52
2023-04-05T03:06:50.993Z,0.70
2023-04-05T03:09:22.395Z,0.60
2023-04-05T03:11:54.049Z,0.90
2023-04-05T03:14:21.724Z,0.90
2023-04-05T03:16:50.529Z,1.38
2023-04-05T03:19:26.076Z,0.93
2023-04-05T03:21:59.541Z,0.93
2023-04-05T03:24:33.264Z,0.60
2023-04-05T03:27:05.919Z,0.73
2023-04-05T03:29:39.527Z,0.70
2023-04-05T03:32:13.994Z,1.50
2023-04-05T03:34:47.999Z,0.65
2023-04-05T03:37:17.338Z,0.70
2023-04-05T03:39:51.944Z,0.70
2023-04-05T03:42:20.327Z,0.65
2023-04-05T03:44:51.310Z,0.75
2023-04-05T03:47:18.810Z,0.70
2023-04-05T03:49:46.381Z,0.70
2023-04-05T03:52:13.888Z,0.52
2023-04-05T03:54:45.439Z,0.55
2023-04-05T03:57:17.150Z,0.60
2023-04-05T03:59:46.344Z,0.70
2023-04-05T04:02:15.881Z,0.70
2023-04-05T04:04:43.451Z,0.52
2023-04-05T04:07:11.643Z,0.70
2023-04-05T04:09:39.723Z,0.75
2023-04-05T04:12:10.110Z,0.60
2023-04-05T04:14:45.691Z,0.75
2023-04-05T04:17:28.846Z,1.02
2023-04-05T04:20:22.054Z,0.60
2023-04-05T04:23:10.058Z,1.42
2023-04-05T04:25:55.864Z,0.70
2023-04-05T04:28:46.292Z,0.73
2023-04-05T04:31:25.224Z,0.60
2023-04-05T04:34:05.519Z,0.80
2023-04-05T04:37:01.250Z,0.60
2023-04-05T04:39:48.766Z,0.80
2023-04-05T04:42:33.702Z,0.55
2023-04-05T04:45:40.027Z,0.50
2023-04-05T04:48:23.750Z,0.52
2023-04-05T04:50:58.718Z,0.70
2023-04-05T04:53:28.197Z,0.52
2023-04-05T04:55:57.286Z,0.50
2023-04-05T04:58:24.824Z,0.70
2023-04-05T05:01:01.836Z,0.70
2023-04-05T05:03:30.764Z,0.70
2023-04-05T05:05:58.489Z,0.50
2023-04-05T05:08:31.397Z,0.65
2023-04-05T05:10:58.976Z,0.70
2023-04-05T05:13:26.523Z,0.60
2023-04-05T05:15:54.520Z,0.40
2023-04-05T05:18:25.234Z,0.40
2023-04-05T05:20:54.156Z,0.52
2023-04-05T05:23:21.829Z,0.60
2023-04-05T05:25:49.346Z,0.50
2023-04-05T05:28:17.425Z,0.73
2023-04-05T05:30:45.405Z,0.75
2023-04-05T05:33:13.234Z,0.80
2023-04-05T05:35:43.066Z,0.60
2023-04-05T05:38:13.880Z,0.65
2023-04-05T05:40:41.976Z,0.60
2023-04-05T05:43:10.500Z,0.73
2023-04-05T05:45:38.245Z,0.50
2023-04-05T05:48:05.965Z,0.80
2023-04-05T05:50:33.736Z,0.47
2023-04-05T05:53:01.890Z,0.60
2023-04-05T05:55:30.919Z,0.60
2023-04-05T05:57:58.468Z,0.50
2023-04-05T06:00:25.987Z,0.60
2023-04-05T06:02:53.745Z,0.60
2023-04-05T06:05:21.334Z,0.65
2023-04-05T06:07:48.911Z,0.73
2023-04-05T06:10:16.396Z,0.60
2023-04-05T06:12:45.332Z,0.65
2023-04-05T06:15:12.823Z,0.80
2023-04-05T06:17:42.621Z,0.90
2023-04-05T06:20:11.664Z,0.80
2023-04-05T06:22:40.301Z,1.15
2023-04-05T06:25:09.260Z,0.60
2023-04-05T06:27:36.821Z,0.60
2023-04-05T06:30:07.005Z,0.88
2023-04-05T06:32:34.612Z,0.80
2023-04-05T06:35:03.660Z,0.73
2023-04-05T06:37:31.222Z,0.80
2023-04-05T06:40:00.366Z,0.65
2023-04-05T06:42:28.131Z,0.47
2023-04-05T06:45:00.906Z,0.82
2023-04-05T06:47:29.809Z,0.90
2023-04-05T06:49:57.322Z,0.75
2023-04-05T06:52:24.901Z,0.82
2023-04-05T06:54:52.434Z,0.73
2023-04-05T06:57:19.907Z,0.80
2023-04-05T06:59:47.424Z,0.60
2023-04-05T07:02:14.926Z,0.80
2023-04-05T07:04:44.277Z,0.73
2023-04-05T07:07:11.986Z,0.80
2023-04-05T07:09:40.248Z,0.55
2023-04-05T07:12:08.792Z,0.68
2023-04-05T07:14:38.074Z,0.52
2023-04-05T07:17:07.076Z,0.45
2023-04-05T07:19:34.744Z,0.47
2023-04-05T07:22:03.548Z,0.50
2023-04-05T07:24:31.685Z,0.52
2023-04-05T07:26:59.280Z,0.40
2023-04-05T07:29:26.866Z,0.47
2023-04-05T07:31:54.516Z,0.38
2023-04-05T07:34:22.073Z,1.08
2023-04-05T07:36:50.330Z,0.63
2023-04-05T07:39:20.086Z,0.35
2023-04-05T07:41:47.715Z,0.50
2023-04-05T07:44:15.242Z,0.35
2023-04-05T07:46:46.892Z,0.60
2023-04-05T07:49:15.964Z,0.52
2023-04-05T07:51:43.762Z,0.52
2023-04-05T07:54:11.566Z,0.55
2023-04-05T07:56:40.637Z,0.68
2023-04-05T07:59:08.277Z,0.50
2023-04-05T08:01:35.985Z,0.40
2023-04-05T08:04:03.565Z,0.30
2023-04-05T08:06:31.165Z,0.45
2023-04-05T08:08:58.664Z,0.47
2023-04-05T08:11:26.755Z,0.50
2023-04-05T08:13:56.619Z,0.55
2023-04-05T08:16:24.219Z,0.50
2023-04-05T08:18:51.807Z,0.60
2023-04-05T08:21:19.528Z,0.55
2023-04-05T08:23:47.048Z,0.40
2023-04-05T08:26:14.565Z,0.40
2023-04-05T08:28:42.111Z,0.57
2023-04-05T08:31:13.440Z,0.30
2023-04-05T08:33:41.291Z,0.60
2023-04-05T08:36:10.012Z,0.40
2023-04-05T08:38:37.692Z,0.20
2023-04-05T08:41:08.793Z,0.50
2023-04-05T08:43:44.573Z,0.47
2023-04-05T08:46:15.527Z,0.40
2023-04-05T08:48:45.776Z,0.35
2023-04-05T08:51:13.441Z,0.45
2023-04-05T08:53:41.146Z,0.50
2023-04-05T08:56:09.198Z,0.55
2023-04-05T08:58:38.812Z,0.40
2023-04-05T09:01:06.980Z,0.52
2023-04-05T09:03:38.210Z,0.50
2023-04-05T09:06:08.576Z,0.30
2023-04-05T09:08:36.242Z,0.47
2023-04-05T09:11:03.801Z,0.40
2023-04-05T09:13:31.945Z,0.50
2023-04-05T09:16:02.197Z,0.50
2023-04-05T09:18:29.939Z,0.30
2023-04-05T09:21:03.827Z,0.50
2023-04-05T09:23:31.410Z,0.75
2023-04-05T09:25:58.913Z,0.57
2023-04-05T09:28:41.146Z,0.40
2023-04-05T09:31:08.721Z,0.50
2023-04-05T09:33:36.807Z,0.50
2023-04-05T09:36:06.345Z,0.32
2023-04-05T09:38:43.734Z,0.28
2023-04-05T09:41:11.559Z,0.40
2023-04-05T09:43:40.530Z,0.40
2023-04-05T09:46:08.229Z,0.60
2023-04-05T09:48:47.153Z,0.47
2023-04-05T09:51:16.711Z,0.60
2023-04-05T09:54:00.208Z,0.40
2023-04-05T09:56:28.529Z,0.40
2023-04-05T09:59:01.278Z,0.50
2023-04-05T10:01:29.780Z,0.52
2023-04-05T10:03:58.413Z,0.40
2023-04-05T10:06:38.934Z,0.38
2023-04-05T10:09:07.358Z,0.50
2023-04-05T10:11:35.606Z,0.40
2023-04-05T10:14:05.251Z,0.30
2023-04-05T10:16:35.518Z,1.02
2023-04-05T10:19:06.865Z,0.30
2023-04-05T10:21:37.903Z,0.40
2023-04-05T10:24:09.718Z,0.28
2023-04-05T10:26:42.364Z,0.40
2023-04-05T10:31:43.558Z,0.40
2023-04-05T10:34:16.470Z,0.40
2023-04-05T10:36:51.115Z,0.28
2023-04-05T10:39:29.249Z,0.30
2023-04-05T10:42:01.485Z,0.43
2023-04-05T10:44:31.555Z,0.40
2023-04-05T10:46:59.367Z,0.60
2023-04-05T10:49:34.049Z,0.50
2023-04-05T10:52:03.508Z,0.30
2023-04-05T10:54:33.910Z,0.35
2023-04-05T10:57:02.787Z,0.40
2023-04-05T10:59:30.501Z,0.40
2023-04-05T11:01:58.869Z,0.43
2023-04-05T11:04:26.660Z,0.30
2023-04-05T11:07:15.345Z,0.30
2023-04-05T11:09:52.924Z,0.32
2023-04-05T11:12:20.424Z,0.20
2023-04-05T11:14:48.058Z,0.45
2023-04-05T11:17:26.084Z,0.45
2023-04-05T11:20:03.730Z,0.50
2023-04-05T11:22:32.700Z,0.40
2023-04-05T11:25:02.846Z,0.20
2023-04-05T11:27:31.977Z,0.20
2023-04-05T11:30:00.119Z,0.30
2023-04-05T11:32:39.673Z,0.50
2023-04-05T11:35:08.558Z,0.70
2023-04-05T11:37:57.195Z,0.43
2023-04-05T11:40:25.836Z,0.32
2023-04-05T11:43:00.307Z,0.30
2023-04-05T11:45:30.012Z,0.38
2023-04-05T11:48:00.754Z,0.40
2023-04-05T11:50:29.361Z,0.68
2023-04-05T11:53:11.956Z,0.30
2023-04-05T11:55:40.184Z,0.40
2023-04-05T11:58:15.013Z,0.30
2023-04-05T12:00:42.721Z,0.40
2023-04-05T12:03:12.904Z,0.47
2023-04-05T12:05:48.017Z,0.63
2023-04-05T12:08:17.173Z,0.50
2023-04-05T12:10:44.735Z,0.32
2023-04-05T12:13:12.251Z,0.35
2023-04-05T12:15:41.113Z,0.40
2023-04-05T12:18:17.586Z,0.30
2023-04-05T12:20:45.629Z,0.35
2023-04-05T12:23:13.340Z,0.40
2023-04-05T12:25:42.937Z,0.30
2023-04-05T12:28:11.612Z,0.35
2023-04-05T12:30:49.426Z,0.30
2023-04-05T12:33:17.448Z,0.30
2023-04-05T12:35:45.011Z,0.30
2023-04-05T12:38:17.463Z,0.20
2023-04-05T12:43:19.613Z,0.40
2023-04-05T12:45:47.328Z,0.30
2023-04-05T12:48:15.841Z,0.30
2023-04-05T12:50:44.694Z,0.35
2023-04-05T12:53:20.162Z,0.30
2023-04-05T12:55:52.871Z,0.38
2023-04-05T12:58:21.229Z,0.40
2023-04-05T13:00:48.818Z,0.20
2023-04-05T13:03:18.085Z,0.40
2023-04-05T13:05:45.875Z,0.40
2023-04-05T13:08:13.394Z,0.40
2023-04-05T13:10:40.987Z,0.30
2023-04-05T13:13:09.853Z,0.30
2023-04-05T13:15:37.391Z,0.30
2023-04-05T13:18:05.570Z,0.30
2023-04-05T13:20:33.330Z,0.40
2023-04-05T13:23:00.920Z,0.40
2023-04-05T13:25:28.569Z,0.30
2023-04-05T13:27:56.114Z,0.35
2023-04-05T13:30:25.399Z,0.40
2023-04-05T13:32:52.863Z,0.40
2023-04-05T13:35:20.649Z,0.40
2023-04-05T13:37:49.615Z,0.40
2023-04-05T13:40:17.525Z,0.40
2023-04-05T13:42:45.684Z,0.40
2023-04-05T13:45:13.217Z,0.73
2023-04-05T13:47:42.309Z,0.32
2023-04-05T13:50:10.342Z,0.40
2023-04-05T13:52:38.396Z,0.45
2023-04-05T13:55:06.621Z,0.80
2023-04-05T13:57:34.142Z,0.50
2023-04-05T14:00:01.991Z,0.40
2023-04-05T14:02:39.472Z,0.40
2023-04-05T14:05:09.810Z,0.40
2023-04-05T14:07:37.594Z,0.68
2023-04-05T14:10:06.526Z,0.52
2023-04-05T14:12:34.708Z,0.50
2023-04-05T14:15:02.210Z,0.32
2023-04-05T14:17:29.712Z,0.60
2023-04-05T14:19:57.205Z,0.47
2023-04-05T14:22:26.178Z,0.65
2023-04-05T14:24:53.815Z,0.40
2023-04-05T14:27:26.410Z,0.35
2023-04-05T14:29:56.878Z,0.50
2023-04-05T14:32:25.129Z,0.50
2023-04-05T14:34:52.654Z,0.60
2023-04-05T14:37:20.300Z,0.50
2023-04-05T14:39:49.133Z,0.50
2023-04-05T14:42:16.633Z,0.95
2023-04-05T14:44:44.148Z,0.60
2023-04-05T14:47:11.700Z,0.60
2023-04-05T14:49:39.179Z,0.63
2023-04-05T14:52:06.711Z,0.45
2023-04-05T14:54:34.273Z,0.77
2023-04-05T14:57:03.162Z,0.43
2023-04-05T14:59:30.938Z,0.60
2023-04-05T15:01:58.597Z,0.75
2023-04-05T15:04:26.500Z,0.50
2023-04-05T15:06:53.967Z,0.55
2023-04-05T15:09:21.681Z,0.60
2023-04-05T15:11:49.192Z,0.75
2023-04-05T15:14:29.020Z,0.50
2023-04-05T15:16:59.556Z,0.60
2023-04-05T15:19:27.395Z,0.50
2023-04-05T15:21:54.979Z,0.60
2023-04-05T15:24:22.479Z,0.73
2023-04-05T15:26:49.992Z,0.73
2023-04-05T15:29:18.798Z,0.50
2023-04-05T15:31:46.503Z,0.70
2023-04-05T15:34:14.125Z,0.80
2023-04-05T15:36:42.467Z,0.60
2023-04-05T15:39:10.109Z,0.35
2023-04-05T15:41:37.714Z,0.70
2023-04-05T15:44:05.214Z,0.70
2023-04-05T15:46:34.101Z,0.60
2023-04-05T15:49:02.009Z,0.70
2023-04-05T15:51:29.836Z,0.77
2023-04-05T15:53:57.814Z,0.73
2023-04-05T15:56:25.443Z,0.70
2023-04-05T15:58:53.173Z,0.50
2023-04-05T16:01:20.740Z,0.55
2023-04-05T16:03:49.767Z,0.40
2023-04-05T16:06:17.348Z,0.80
2023-04-05T16:08:44.849Z,0.52
2023-04-05T16:11:12.367Z,0.60
2023-04-05T16:13:39.878Z,0.50
2023-04-05T16:16:07.658Z,0.70
2023-04-05T16:18:35.162Z,0.85
2023-04-05T16:21:04.016Z,0.40
2023-04-05T16:23:31.947Z,0.65
2023-04-05T16:25:59.571Z,0.60
2023-04-05T16:28:27.093Z,0.65
2023-04-05T16:30:55.768Z,0.60
2023-04-05T16:33:23.266Z,0.50
2023-04-05T16:35:50.791Z,0.60
2023-04-05T16:38:19.681Z,2.08
2023-04-05T16:40:47.206Z,0.70
2023-04-05T16:43:14.724Z,1.05
2023-04-05T16:45:43.902Z,0.68
2023-04-05T16:48:12.753Z,0.70
2023-04-05T16:50:41.328Z,0.98
2023-04-05T16:53:10.163Z,1.85
2023-04-05T16:55:38.967Z,0.93
2023-04-05T16:58:06.455Z,0.90
2023-04-05T17:00:33.953Z,1.10
2023-04-05T17:03:01.900Z,0.73
2023-04-05T17:05:29.468Z,1.08
2023-04-05T17:07:56.995Z,0.77
2023-04-05T17:10:24.622Z,1.10
2023-04-05T17:12:53.461Z,0.80
2023-04-05T17:15:21.068Z,0.80
2023-04-05T17:17:48.658Z,1.13
2023-04-05T17:20:16.338Z,0.63
2023-04-05T17:22:43.933Z,0.80
2023-04-05T17:25:12.205Z,0.88
2023-04-05T17:27:39.719Z,0.75
2023-04-05T17:30:10.104Z,0.80
2023-04-05T17:32:37.877Z,1.00
2023-04-05T17:35:06.281Z,1.20
2023-04-05T17:37:33.811Z,1.00
2023-04-05T17:40:01.343Z,1.13
2023-04-05T17:42:28.815Z,0.70
2023-04-05T17:44:56.917Z,0.80
2023-04-05T17:47:25.910Z,1.15
2023-04-05T17:49:53.529Z,1.20
2023-04-05T17:52:22.583Z,1.23
2023-04-05T17:54:52.285Z,1.30
2023-04-05T17:57:19.853Z,0.98
2023-04-05T17:59:47.491Z,0.82
2023-04-05T18:02:15.099Z,1.30
2023-04-05T18:04:44.323Z,1.00
2023-04-05T18:07:11.868Z,1.10
2023-04-05T18:09:42.040Z,1.33
2023-04-05T18:12:09.634Z,0.90
2023-04-05T18:14:37.513Z,1.30
2023-04-05T18:17:06.164Z,1.13
2023-04-05T18:19:33.744Z,1.75
2023-04-05T18:22:02.629Z,1.10
2023-04-05T18:24:30.479Z,1.10
2023-04-05T18:26:58.328Z,1.75
2023-04-05T18:29:28.565Z,1.30
2023-04-05T18:31:56.234Z,1.70
2023-04-05T18:34:24.940Z,1.38
2023-04-05T18:36:53.390Z,1.42
2023-04-05T18:39:28.416Z,1.95
2023-04-05T18:41:55.986Z,1.88
2023-04-05T18:44:23.536Z,1.80
2023-04-05T18:46:51.132Z,2.60
2023-04-05T18:49:19.245Z,2.00
2023-04-05T18:51:48.708Z,2.70
2023-04-05T18:54:18.363Z,2.53
2023-04-05T18:56:47.927Z,2.60
2023-04-05T18:59:16.196Z,2.25
2023-04-05T19:01:44.027Z,3.85
2023-04-05T19:04:11.666Z,2.95
2023-04-05T19:06:39.182Z,3.20
2023-04-05T19:09:07.402Z,2.42
2023-04-05T19:11:35.086Z,2.10
2023-04-05T19:14:04.151Z,2.35
2023-04-05T19:16:31.974Z,2.53
2023-04-05T19:18:59.603Z,1.90
2023-04-05T19:21:27.476Z,1.40
2023-04-05T19:23:56.041Z,1.85
2023-04-05T19:26:23.740Z,1.83
2023-04-05T19:28:51.435Z,1.50
2023-04-05T19:31:20.329Z,1.40
2023-04-05T19:33:49.167Z,1.58
2023-04-05T19:36:17.324Z,1.60
2023-04-05T19:38:44.978Z,2.35
2023-04-05T19:41:12.465Z,2.78
2023-04-05T19:43:41.288Z,3.28
2023-04-05T19:46:10.666Z,2.95
2023-04-05T19:48:41.161Z,2.95
2023-04-05T19:51:09.560Z,2.72
2023-04-05T19:53:45.087Z,2.10
2023-04-05T19:56:15.010Z,2.42
2023-04-05T19:58:42.891Z,1.90
2023-04-05T20:01:10.710Z,1.90
2023-04-05T20:03:42.007Z,1.75
2023-04-05T20:06:11.128Z,1.98
2023-04-05T20:08:40.358Z,2.30
2023-04-05T20:11:11.864Z,1.90
2023-04-05T20:13:44.212Z,1.92
2023-04-05T20:16:13.504Z,1.90
2023-04-05T20:18:45.528Z,2.33
2023-04-05T20:21:13.517Z,1.85
2023-04-05T20:23:42.605Z,1.90
2023-04-05T20:26:13.376Z,1.75
2023-04-05T20:28:41.958Z,1.60
2023-04-05T20:31:11.061Z,1.55
2023-04-05T20:33:49.061Z,1.83
2023-04-05T20:36:21.434Z,1.92
2023-04-05T20:38:49.759Z,1.80
2023-04-05T20:41:19.719Z,1.50
2023-04-05T20:43:47.770Z,1.77
2023-04-05T20:46:16.074Z,1.63
2023-04-05T20:48:44.239Z,2.50
2023-04-05T20:51:16.199Z,2.00
2023-04-05T20:53:44.192Z,2.63
2023-04-05T20:56:12.334Z,2.20
2023-04-05T20:58:41.009Z,2.90
2023-04-05T21:01:09.487Z,3.05
2023-04-05T21:03:38.894Z,2.80
2023-04-05T21:06:08.240Z,2.80
2023-04-05T21:08:39.182Z,2.50
2023-04-05T21:11:07.224Z,2.40
2023-04-05T21:13:35.722Z,2.30
2023-04-05T21:16:03.336Z,2.10
2023-04-05T21:18:31.029Z,2.30
2023-04-05T21:20:58.555Z,2.40
2023-04-05T21:23:29.203Z,2.70
2023-04-05T21:25:58.529Z,2.25
2023-04-05T21:28:26.859Z,2.53
2023-04-05T21:30:54.435Z,2.40
2023-04-05T21:33:22.307Z,2.65
2023-04-05T21:35:50.759Z,1.98
2023-04-05T21:38:18.852Z,2.10
2023-04-05T21:40:46.385Z,2.33
2023-04-05T21:43:15.229Z,1.92
2023-04-05T21:45:42.776Z,2.55
2023-04-05T21:48:10.371Z,2.63
2023-04-05T21:50:38.077Z,2.58
2023-04-05T21:53:07.221Z,2.75
2023-04-05T21:55:34.920Z,2.75
2023-04-05T21:58:02.421Z,2.65
2023-04-05T22:00:31.376Z,1.88
2023-04-05T22:02:58.925Z,1.90
2023-04-05T22:05:37.406Z,1.90
2023-04-05T22:08:07.433Z,1.65
2023-04-05T22:10:36.928Z,2.00
2023-04-05T22:13:04.447Z,2.15
2023-04-05T22:15:33.261Z,1.92
2023-04-05T22:18:00.900Z,2.35
2023-04-05T22:20:28.653Z,1.75
2023-04-05T22:22:56.205Z,2.42
2023-04-05T22:25:23.715Z,2.10
2023-04-05T22:27:51.270Z,2.95
2023-04-05T22:30:19.243Z,2.08
2023-04-05T22:35:16.901Z,1.50
2023-04-05T22:37:44.481Z,1.70
2023-04-05T22:40:13.136Z,2.55
2023-04-05T22:42:41.977Z,1.45
2023-04-05T22:45:10.497Z,1.55
2023-04-05T22:47:38.025Z,1.58
2023-04-05T22:50:08.218Z,1.60
2023-04-05T22:52:35.813Z,1.42
2023-04-05T22:55:04.376Z,1.45
2023-04-05T22:57:32.397Z,1.40
2023-04-05T22:59:59.967Z,1.42
2023-04-05T23:02:29.356Z,1.73
2023-04-05T23:04:57.115Z,1.63
2023-04-05T23:07:26.101Z,1.67
2023-04-05T23:09:53.721Z,1.50
2023-04-05T23:12:21.244Z,1.63
2023-04-05T23:14:48.751Z,1.27
2023-04-05T23:17:16.690Z,1.38
2023-04-05T23:19:44.233Z,1.80
2023-04-05T23:22:11.751Z,1.80
2023-04-05T23:24:40.610Z,1.65
2023-04-05T23:27:08.192Z,2.72
2023-04-05T23:29:35.821Z,1.83
2023-04-05T23:32:03.279Z,1.95
2023-04-05T23:34:30.941Z,1.92
2023-04-05T23:36:58.427Z,1.42
2023-04-05T23:39:25.900Z,1.30
2023-04-05T23:41:54.772Z,1.58
2023-04-05T23:44:22.279Z,1.70
2023-04-05T23:46:49.797Z,1.90
2023-04-05T23:49:17.298Z,2.22
2023-04-05T23:51:44.815Z,1.40
2023-04-05T23:54:12.474Z,1.85
2023-04-05T23:56:40.033Z,2.40
2023-04-05T23:59:09.096Z,1.83
